sensor_id;sensor_type;location;lat;lon;timestamp;temperature;humidity
8424;DHT22;4249;49.072;9.770;2022-12-18T00:00:19;-9.80;99.90
8424;DHT22;4249;49.072;9.770;2022-12-18T00:03:10;-9.80;1.00
8424;DHT22;4249;49.072;9.770;2022-12-18T00:05:57;-9.90;91.00
8424;DHT22;4249;49.072;9.770;2022-12-18T00:08:45;-9.90;99.90
8424;DHT22;4249;49.072;9.770;2022-12-18T00:11:36;-9.90;1.00
8424;DHT22;4249;49.072;9.770;2022-12-18T00:14:23;-9.80;1.00
8424;DHT22;4249;49.072;9.770;2022-12-18T00:17:10;-9.90;1.00
8424;DHT22;4249;49.072;9.770;2022-12-18T00:19:57;-9.90;1.00
8424;DHT22;4249;49.072;9.770;2022-12-18T00:22:44;-9.90;1.00
8424;DHT22;4249;49.072;9.770;2022-12-18T00:25:33;-9.80;1.00
8424;DHT22;4249;49.072;9.770;2022-12-18T00:28:22;-9.80;91.20
8424;DHT22;4249;49.072;9.770;2022-12-18T00:31:11;-9.80;1.00
8424;DHT22;4249;49.072;9.770;2022-12-18T00:33:58;-9.90;1.00
8424;DHT22;4249;49.072;9.770;2022-12-18T00:36:47;-9.90;99.90
8424;DHT22;4249;49.072;9.770;2022-12-18T00:39:37;-9.90;99.90
8424;DHT22;4249;49.072;9.770;2022-12-18T00:42:25;-10.00;99.90
8424;DHT22;4249;49.072;9.770;2022-12-18T00:45:29;-10.00;99.90
8424;DHT22;4249;49.072;9.770;2022-12-18T00:48:16;-10.00;1.00
8424;DHT22;4249;49.072;9.770;2022-12-18T00:51:04;-10.10;1.00
8424;DHT22;4249;49.072;9.770;2022-12-18T00:53:52;-10.10;1.00
8424;DHT22;4249;49.072;9.770;2022-12-18T00:56:40;-10.10;99.90
8424;DHT22;4249;49.072;9.770;2022-12-18T00:59:27;-10.00;99.90
8424;DHT22;4249;49.072;9.770;2022-12-18T01:02:18;-10.00;1.00
8424;DHT22;4249;49.072;9.770;2022-12-18T01:05:07;-10.00;99.90
8424;DHT22;4249;49.072;9.770;2022-12-18T01:07:55;-9.90;1.00
8424;DHT22;4249;49.072;9.770;2022-12-18T01:10:42;-9.90;99.90
8424;DHT22;4249;49.072;9.770;2022-12-18T01:13:29;-9.80;1.00
8424;DHT22;4249;49.072;9.770;2022-12-18T01:16:17;-9.80;1.00
8424;DHT22;4249;49.072;9.770;2022-12-18T01:19:06;-9.80;1.00
8424;DHT22;4249;49.072;9.770;2022-12-18T01:21:53;-9.70;1.00
8424;DHT22;4249;49.072;9.770;2022-12-18T01:24:40;-9.70;1.00
8424;DHT22;4249;49.072;9.770;2022-12-18T01:27:27;-9.80;99.90
8424;DHT22;4249;49.072;9.770;2022-12-18T01:30:14;-9.80;99.90
8424;DHT22;4249;49.072;9.770;2022-12-18T01:33:04;-9.80;99.90
8424;DHT22;4249;49.072;9.770;2022-12-18T01:35:52;-9.90;1.00
8424;DHT22;4249;49.072;9.770;2022-12-18T01:38:39;-9.90;1.00
8424;DHT22;4249;49.072;9.770;2022-12-18T01:41:29;-9.90;99.90
8424;DHT22;4249;49.072;9.770;2022-12-18T01:44:57;-10.00;1.00
8424;DHT22;4249;49.072;9.770;2022-12-18T01:47:46;-10.00;99.90
8424;DHT22;4249;49.072;9.770;2022-12-18T01:50:36;-10.00;99.90
8424;DHT22;4249;49.072;9.770;2022-12-18T01:53:25;-10.00;99.90
8424;DHT22;4249;49.072;9.770;2022-12-18T01:56:14;-10.00;1.00
8424;DHT22;4249;49.072;9.770;2022-12-18T01:59:04;-10.00;6.10
8424;DHT22;4249;49.072;9.770;2022-12-18T02:01:52;-10.10;99.90
8424;DHT22;4249;49.072;9.770;2022-12-18T02:04:42;-10.00;1.00
8424;DHT22;4249;49.072;9.770;2022-12-18T02:07:37;-10.00;1.00
8424;DHT22;4249;49.072;9.770;2022-12-18T02:10:31;-10.10;1.00
8424;DHT22;4249;49.072;9.770;2022-12-18T02:13:23;-10.10;60.90
8424;DHT22;4249;49.072;9.770;2022-12-18T02:16:18;-10.10;1.00
8424;DHT22;4249;49.072;9.770;2022-12-18T02:19:20;-10.20;1.00
8424;DHT22;4249;49.072;9.770;2022-12-18T02:22:19;-10.20;29.10
8424;DHT22;4249;49.072;9.770;2022-12-18T02:25:17;-10.20;1.00
8424;DHT22;4249;49.072;9.770;2022-12-18T02:28:13;-10.20;1.00
8424;DHT22;4249;49.072;9.770;2022-12-18T02:31:04;-10.20;1.00
8424;DHT22;4249;49.072;9.770;2022-12-18T02:33:56;-10.30;1.00
8424;DHT22;4249;49.072;9.770;2022-12-18T02:36:46;-10.30;1.00
8424;DHT22;4249;49.072;9.770;2022-12-18T02:39:38;-10.30;99.90
8424;DHT22;4249;49.072;9.770;2022-12-18T02:42:28;-10.40;99.90
8424;DHT22;4249;49.072;9.770;2022-12-18T02:45:16;-10.50;99.90
8424;DHT22;4249;49.072;9.770;2022-12-18T02:48:04;-10.50;1.00
8424;DHT22;4249;49.072;9.770;2022-12-18T02:50:58;-10.50;1.00
8424;DHT22;4249;49.072;9.770;2022-12-18T02:53:53;-10.40;99.90
8424;DHT22;4249;49.072;9.770;2022-12-18T02:56:48;-10.30;99.50
8424;DHT22;4249;49.072;9.770;2022-12-18T02:59:40;-10.40;1.00
8424;DHT22;4249;49.072;9.770;2022-12-18T03:02:37;-10.40;1.00
8424;DHT22;4249;49.072;9.770;2022-12-18T03:05:31;-10.50;1.00
8424;DHT22;4249;49.072;9.770;2022-12-18T03:08:22;-10.50;99.90
8424;DHT22;4249;49.072;9.770;2022-12-18T03:11:12;-10.50;99.90
8424;DHT22;4249;49.072;9.770;2022-12-18T03:14:00;-10.40;1.00
8424;DHT22;4249;49.072;9.770;2022-12-18T03:16:49;-10.40;1.00
8424;DHT22;4249;49.072;9.770;2022-12-18T03:19:38;-10.30;1.00
8424;DHT22;4249;49.072;9.770;2022-12-18T03:22:27;-9.90;1.00
8424;DHT22;4249;49.072;9.770;2022-12-18T03:25:18;-9.60;1.00
8424;DHT22;4249;49.072;9.770;2022-12-18T03:28:07;-9.40;1.00
8424;DHT22;4249;49.072;9.770;2022-12-18T03:30:59;-9.50;99.90
8424;DHT22;4249;49.072;9.770;2022-12-18T03:33:52;-9.60;1.00
8424;DHT22;4249;49.072;9.770;2022-12-18T03:36:41;-9.70;1.00
8424;DHT22;4249;49.072;9.770;2022-12-18T03:39:29;-9.70;1.00
8424;DHT22;4249;49.072;9.770;2022-12-18T03:42:23;-9.80;1.00
8424;DHT22;4249;49.072;9.770;2022-12-18T03:45:19;-10.00;1.00
8424;DHT22;4249;49.072;9.770;2022-12-18T03:48:14;-10.20;1.00
8424;DHT22;4249;49.072;9.770;2022-12-18T03:51:07;-10.20;1.00
8424;DHT22;4249;49.072;9.770;2022-12-18T03:54:01;-10.20;99.90
8424;DHT22;4249;49.072;9.770;2022-12-18T03:56:53;-10.30;99.90
8424;DHT22;4249;49.072;9.770;2022-12-18T03:59:43;-10.30;1.00
8424;DHT22;4249;49.072;9.770;2022-12-18T04:02:32;-10.30;1.00
8424;DHT22;4249;49.072;9.770;2022-12-18T04:05:21;-10.40;1.00
8424;DHT22;4249;49.072;9.770;2022-12-18T04:08:09;-10.50;1.00
8424;DHT22;4249;49.072;9.770;2022-12-18T04:10:59;-10.50;1.00
8424;DHT22;4249;49.072;9.770;2022-12-18T04:13:46;-10.40;99.90
8424;DHT22;4249;49.072;9.770;2022-12-18T04:16:34;-10.30;1.00
8424;DHT22;4249;49.072;9.770;2022-12-18T04:19:21;-10.30;99.90
8424;DHT22;4249;49.072;9.770;2022-12-18T04:22:09;-10.40;1.00
8424;DHT22;4249;49.072;9.770;2022-12-18T04:24:56;-10.50;1.00
8424;DHT22;4249;49.072;9.770;2022-12-18T04:27:45;-10.60;1.00
8424;DHT22;4249;49.072;9.770;2022-12-18T04:30:32;-10.50;1.00
8424;DHT22;4249;49.072;9.770;2022-12-18T04:33:19;-10.50;99.90
8424;DHT22;4249;49.072;9.770;2022-12-18T04:36:07;-10.50;1.00
8424;DHT22;4249;49.072;9.770;2022-12-18T04:38:54;-10.50;99.90
8424;DHT22;4249;49.072;9.770;2022-12-18T04:41:41;-10.50;99.90
8424;DHT22;4249;49.072;9.770;2022-12-18T04:44:30;-10.50;1.00
8424;DHT22;4249;49.072;9.770;2022-12-18T04:47:17;-10.50;1.00
8424;DHT22;4249;49.072;9.770;2022-12-18T04:50:05;-10.50;99.90
8424;DHT22;4249;49.072;9.770;2022-12-18T04:52:53;-10.50;1.00
8424;DHT22;4249;49.072;9.770;2022-12-18T04:55:40;-10.40;1.00
8424;DHT22;4249;49.072;9.770;2022-12-18T04:58:27;-10.40;70.50
8424;DHT22;4249;49.072;9.770;2022-12-18T05:01:17;-10.40;99.90
8424;DHT22;4249;49.072;9.770;2022-12-18T05:04:04;-10.40;1.00
8424;DHT22;4249;49.072;9.770;2022-12-18T05:06:51;-10.40;99.90
8424;DHT22;4249;49.072;9.770;2022-12-18T05:09:39;-10.30;1.00
8424;DHT22;4249;49.072;9.770;2022-12-18T05:12:26;-10.20;1.00
8424;DHT22;4249;49.072;9.770;2022-12-18T05:15:13;-10.10;70.50
8424;DHT22;4249;49.072;9.770;2022-12-18T05:18:02;-10.00;99.90
8424;DHT22;4249;49.072;9.770;2022-12-18T05:20:50;-9.90;1.00
8424;DHT22;4249;49.072;9.770;2022-12-18T05:23:38;-9.90;1.00
8424;DHT22;4249;49.072;9.770;2022-12-18T05:26:25;-9.80;1.00
8424;DHT22;4249;49.072;9.770;2022-12-18T05:29:12;-9.80;1.00
8424;DHT22;4249;49.072;9.770;2022-12-18T05:31:59;-9.80;1.00
8424;DHT22;4249;49.072;9.770;2022-12-18T05:34:48;-9.70;1.00
8424;DHT22;4249;49.072;9.770;2022-12-18T05:37:35;-9.60;99.90
8424;DHT22;4249;49.072;9.770;2022-12-18T05:40:23;-9.60;99.90
8424;DHT22;4249;49.072;9.770;2022-12-18T05:43:10;-9.60;99.90
8424;DHT22;4249;49.072;9.770;2022-12-18T05:45:57;-9.50;86.50
8424;DHT22;4249;49.072;9.770;2022-12-18T05:48:45;-9.50;1.00
8424;DHT22;4249;49.072;9.770;2022-12-18T05:51:33;-9.50;1.00
8424;DHT22;4249;49.072;9.770;2022-12-18T05:54:20;-9.50;1.00
8424;DHT22;4249;49.072;9.770;2022-12-18T05:57:07;-9.50;1.00
8424;DHT22;4249;49.072;9.770;2022-12-18T05:59:55;-9.50;1.00
8424;DHT22;4249;49.072;9.770;2022-12-18T06:02:42;-9.50;1.00
8424;DHT22;4249;49.072;9.770;2022-12-18T06:05:36;-9.40;1.00
8424;DHT22;4249;49.072;9.770;2022-12-18T06:08:24;-9.50;1.00
8424;DHT22;4249;49.072;9.770;2022-12-18T06:11:11;-9.50;1.00
8424;DHT22;4249;49.072;9.770;2022-12-18T06:13:59;-9.50;1.00
8424;DHT22;4249;49.072;9.770;2022-12-18T06:16:46;-9.40;1.00
8424;DHT22;4249;49.072;9.770;2022-12-18T06:19:33;-9.40;1.00
8424;DHT22;4249;49.072;9.770;2022-12-18T06:22:20;-9.30;1.00
8424;DHT22;4249;49.072;9.770;2022-12-18T06:25:11;-9.40;1.00
8424;DHT22;4249;49.072;9.770;2022-12-18T06:27:58;-9.40;1.00
8424;DHT22;4249;49.072;9.770;2022-12-18T06:30:47;-9.30;1.00
8424;DHT22;4249;49.072;9.770;2022-12-18T06:33:35;-9.20;1.00
8424;DHT22;4249;49.072;9.770;2022-12-18T06:36:23;-9.10;19.50
8424;DHT22;4249;49.072;9.770;2022-12-18T06:39:10;-9.00;1.00
8424;DHT22;4249;49.072;9.770;2022-12-18T06:41:58;-9.10;1.00
8424;DHT22;4249;49.072;9.770;2022-12-18T06:44:45;-9.10;1.00
8424;DHT22;4249;49.072;9.770;2022-12-18T06:47:33;-9.00;1.00
8424;DHT22;4249;49.072;9.770;2022-12-18T06:50:20;-9.00;99.90
8424;DHT22;4249;49.072;9.770;2022-12-18T06:53:07;-9.00;99.90
8424;DHT22;4249;49.072;9.770;2022-12-18T06:56:00;-9.00;1.00
8424;DHT22;4249;49.072;9.770;2022-12-18T06:58:48;-9.10;1.00
8424;DHT22;4249;49.072;9.770;2022-12-18T07:01:36;-9.10;1.00
8424;DHT22;4249;49.072;9.770;2022-12-18T07:04:27;-9.10;1.00
8424;DHT22;4249;49.072;9.770;2022-12-18T07:07:15;-9.10;1.00
8424;DHT22;4249;49.072;9.770;2022-12-18T07:10:02;-9.10;1.00
8424;DHT22;4249;49.072;9.770;2022-12-18T07:12:49;-9.00;99.90
8424;DHT22;4249;49.072;9.770;2022-12-18T07:15:38;-9.00;2.00
8424;DHT22;4249;49.072;9.770;2022-12-18T07:18:25;-9.00;1.00
8424;DHT22;4249;49.072;9.770;2022-12-18T07:21:14;-9.00;1.00
8424;DHT22;4249;49.072;9.770;2022-12-18T07:24:01;-9.00;1.00
8424;DHT22;4249;49.072;9.770;2022-12-18T07:26:48;-9.00;1.00
8424;DHT22;4249;49.072;9.770;2022-12-18T07:29:36;-9.00;99.90
8424;DHT22;4249;49.072;9.770;2022-12-18T07:32:24;-9.00;1.00
8424;DHT22;4249;49.072;9.770;2022-12-18T07:35:11;-9.00;1.00
8424;DHT22;4249;49.072;9.770;2022-12-18T07:37:58;-8.90;1.00
8424;DHT22;4249;49.072;9.770;2022-12-18T07:40:47;-8.80;1.00
8424;DHT22;4249;49.072;9.770;2022-12-18T07:43:34;-8.70;98.20
8424;DHT22;4249;49.072;9.770;2022-12-18T07:46:23;-8.60;99.90
8424;DHT22;4249;49.072;9.770;2022-12-18T07:49:11;-8.60;99.90
8424;DHT22;4249;49.072;9.770;2022-12-18T07:51:59;-8.50;99.90
8424;DHT22;4249;49.072;9.770;2022-12-18T07:54:47;-8.40;99.90
8424;DHT22;4249;49.072;9.770;2022-12-18T07:57:36;-8.20;99.90
8424;DHT22;4249;49.072;9.770;2022-12-18T08:00:24;-8.10;99.90
8424;DHT22;4249;49.072;9.770;2022-12-18T08:03:12;-8.00;99.90
8424;DHT22;4249;49.072;9.770;2022-12-18T08:06:01;-7.90;99.90
8424;DHT22;4249;49.072;9.770;2022-12-18T08:08:48;-7.70;99.90
8424;DHT22;4249;49.072;9.770;2022-12-18T08:11:37;-7.60;99.90
8424;DHT22;4249;49.072;9.770;2022-12-18T08:14:25;-7.50;99.90
8424;DHT22;4249;49.072;9.770;2022-12-18T08:17:14;-7.30;99.90
8424;DHT22;4249;49.072;9.770;2022-12-18T08:20:01;-7.10;91.00
8424;DHT22;4249;49.072;9.770;2022-12-18T08:22:50;-6.90;1.00
8424;DHT22;4249;49.072;9.770;2022-12-18T08:25:37;-6.70;99.90
8424;DHT22;4249;49.072;9.770;2022-12-18T08:28:24;-6.60;99.90
8424;DHT22;4249;49.072;9.770;2022-12-18T08:31:13;-6.50;99.90
8424;DHT22;4249;49.072;9.770;2022-12-18T08:34:03;-6.40;99.90
8424;DHT22;4249;49.072;9.770;2022-12-18T08:36:50;-6.20;1.00
8424;DHT22;4249;49.072;9.770;2022-12-18T08:39:38;-6.10;99.90
8424;DHT22;4249;49.072;9.770;2022-12-18T08:42:26;-5.90;1.00
8424;DHT22;4249;49.072;9.770;2022-12-18T08:45:33;-5.80;1.00
8424;DHT22;4249;49.072;9.770;2022-12-18T08:48:20;-5.70;1.00
8424;DHT22;4249;49.072;9.770;2022-12-18T08:51:08;-5.70;1.00
8424;DHT22;4249;49.072;9.770;2022-12-18T08:53:56;-5.60;1.00
8424;DHT22;4249;49.072;9.770;2022-12-18T08:56:45;-5.50;1.00
8424;DHT22;4249;49.072;9.770;2022-12-18T08:59:32;-5.50;1.00
8424;DHT22;4249;49.072;9.770;2022-12-18T09:02:28;-5.40;1.00
8424;DHT22;4249;49.072;9.770;2022-12-18T09:05:16;-5.20;1.00
8424;DHT22;4249;49.072;9.770;2022-12-18T09:08:03;-5.10;99.90
8424;DHT22;4249;49.072;9.770;2022-12-18T09:10:50;-4.90;1.00
8424;DHT22;4249;49.072;9.770;2022-12-18T09:13:39;-4.80;1.00
8424;DHT22;4249;49.072;9.770;2022-12-18T09:16:28;-4.80;1.00
8424;DHT22;4249;49.072;9.770;2022-12-18T09:19:16;-4.70;1.00
8424;DHT22;4249;49.072;9.770;2022-12-18T09:22:05;-4.50;1.00
8424;DHT22;4249;49.072;9.770;2022-12-18T09:24:52;-4.40;1.00
8424;DHT22;4249;49.072;9.770;2022-12-18T09:27:39;-4.40;99.90
8424;DHT22;4249;49.072;9.770;2022-12-18T09:30:30;-4.40;99.90
8424;DHT22;4249;49.072;9.770;2022-12-18T09:33:19;-4.40;1.00
8424;DHT22;4249;49.072;9.770;2022-12-18T09:36:09;-4.30;1.00
8424;DHT22;4249;49.072;9.770;2022-12-18T09:38:56;-4.10;99.90
8424;DHT22;4249;49.072;9.770;2022-12-18T09:41:46;-4.10;99.90
8424;DHT22;4249;49.072;9.770;2022-12-18T09:44:39;-4.10;1.00
8424;DHT22;4249;49.072;9.770;2022-12-18T09:47:32;-4.00;99.90
8424;DHT22;4249;49.072;9.770;2022-12-18T09:50:24;-3.90;1.00
8424;DHT22;4249;49.072;9.770;2022-12-18T09:53:17;-3.80;99.90
8424;DHT22;4249;49.072;9.770;2022-12-18T09:56:12;-3.80;99.90
8424;DHT22;4249;49.072;9.770;2022-12-18T09:59:03;-3.70;78.30
8424;DHT22;4249;49.072;9.770;2022-12-18T10:01:51;-3.70;99.90
8424;DHT22;4249;49.072;9.770;2022-12-18T10:04:41;-3.60;99.90
8424;DHT22;4249;49.072;9.770;2022-12-18T10:07:36;-3.50;99.90
8424;DHT22;4249;49.072;9.770;2022-12-18T10:10:39;-3.40;99.90
8424;DHT22;4249;49.072;9.770;2022-12-18T10:13:33;-3.30;53.30
8424;DHT22;4249;49.072;9.770;2022-12-18T10:16:27;-3.20;1.00
8424;DHT22;4249;49.072;9.770;2022-12-18T10:19:35;-3.10;1.00
8424;DHT22;4249;49.072;9.770;2022-12-18T10:22:43;-3.20;1.00
8424;DHT22;4249;49.072;9.770;2022-12-18T10:25:34;-2.90;5.50
8424;DHT22;4249;49.072;9.770;2022-12-18T10:28:24;-2.70;1.00
8424;DHT22;4249;49.072;9.770;2022-12-18T10:31:15;-2.60;1.00
8424;DHT22;4249;49.072;9.770;2022-12-18T10:34:04;-2.60;1.00
8424;DHT22;4249;49.072;9.770;2022-12-18T10:36:51;-2.60;1.00
8424;DHT22;4249;49.072;9.770;2022-12-18T10:39:40;-2.60;1.00
8424;DHT22;4249;49.072;9.770;2022-12-18T10:42:28;-2.50;1.00
8424;DHT22;4249;49.072;9.770;2022-12-18T10:45:17;-2.30;1.00
8424;DHT22;4249;49.072;9.770;2022-12-18T10:48:05;-2.40;1.00
8424;DHT22;4249;49.072;9.770;2022-12-18T10:51:04;-2.30;1.00
8424;DHT22;4249;49.072;9.770;2022-12-18T10:53:55;-2.40;1.00
8424;DHT22;4249;49.072;9.770;2022-12-18T10:56:44;-2.40;1.00
8424;DHT22;4249;49.072;9.770;2022-12-18T10:59:50;-2.30;1.00
8424;DHT22;4249;49.072;9.770;2022-12-18T11:02:38;-2.40;1.00
8424;DHT22;4249;49.072;9.770;2022-12-18T11:05:28;-2.30;1.00
8424;DHT22;4249;49.072;9.770;2022-12-18T11:08:21;-2.40;1.00
8424;DHT22;4249;49.072;9.770;2022-12-18T11:11:19;-2.30;1.00
8424;DHT22;4249;49.072;9.770;2022-12-18T11:14:17;-2.30;1.00
8424;DHT22;4249;49.072;9.770;2022-12-18T11:17:16;-2.30;1.00
8424;DHT22;4249;49.072;9.770;2022-12-18T11:20:06;-2.20;1.00
8424;DHT22;4249;49.072;9.770;2022-12-18T11:22:58;-2.10;1.00
8424;DHT22;4249;49.072;9.770;2022-12-18T11:25:52;-2.10;1.00
8424;DHT22;4249;49.072;9.770;2022-12-18T11:28:43;-1.90;1.00
8424;DHT22;4249;49.072;9.770;2022-12-18T11:31:33;-1.90;1.00
8424;DHT22;4249;49.072;9.770;2022-12-18T11:34:24;-1.70;1.00
8424;DHT22;4249;49.072;9.770;2022-12-18T11:37:14;-1.50;1.00
8424;DHT22;4249;49.072;9.770;2022-12-18T11:40:11;-1.60;1.00
8424;DHT22;4249;49.072;9.770;2022-12-18T11:43:06;-1.50;1.00
8424;DHT22;4249;49.072;9.770;2022-12-18T11:45:58;-1.50;1.00
8424;DHT22;4249;49.072;9.770;2022-12-18T11:48:52;-1.50;1.00
8424;DHT22;4249;49.072;9.770;2022-12-18T11:51:48;-1.50;99.90
8424;DHT22;4249;49.072;9.770;2022-12-18T11:54:37;-1.50;99.90
8424;DHT22;4249;49.072;9.770;2022-12-18T11:57:33;-1.40;99.90
8424;DHT22;4249;49.072;9.770;2022-12-18T12:00:22;-1.50;99.90
8424;DHT22;4249;49.072;9.770;2022-12-18T12:03:22;-1.40;99.90
8424;DHT22;4249;49.072;9.770;2022-12-18T12:06:20;-1.40;99.90
8424;DHT22;4249;49.072;9.770;2022-12-18T12:09:17;-1.60;99.90
8424;DHT22;4249;49.072;9.770;2022-12-18T12:12:23;-1.60;99.90
8424;DHT22;4249;49.072;9.770;2022-12-18T12:15:24;-1.70;99.90
8424;DHT22;4249;49.072;9.770;2022-12-18T12:18:20;-1.60;99.90
8424;DHT22;4249;49.072;9.770;2022-12-18T12:21:17;-1.80;99.90
8424;DHT22;4249;49.072;9.770;2022-12-18T12:24:30;-1.80;99.90
8424;DHT22;4249;49.072;9.770;2022-12-18T12:27:30;-1.70;99.90
8424;DHT22;4249;49.072;9.770;2022-12-18T12:30:22;-1.80;99.90
8424;DHT22;4249;49.072;9.770;2022-12-18T12:33:23;-1.80;99.90
8424;DHT22;4249;49.072;9.770;2022-12-18T12:36:21;-1.60;99.90
8424;DHT22;4249;49.072;9.770;2022-12-18T12:39:13;-1.60;99.90
8424;DHT22;4249;49.072;9.770;2022-12-18T12:42:04;-1.60;99.90
8424;DHT22;4249;49.072;9.770;2022-12-18T12:44:53;-1.50;99.90
8424;DHT22;4249;49.072;9.770;2022-12-18T12:47:25;-1.60;99.90
8424;DHT22;4249;49.072;9.770;2022-12-18T12:49:55;-1.60;99.90
8424;DHT22;4249;49.072;9.770;2022-12-18T12:52:30;-1.70;99.90
8424;DHT22;4249;49.072;9.770;2022-12-18T12:55:00;-1.70;99.90
8424;DHT22;4249;49.072;9.770;2022-12-18T12:57:33;-1.70;99.90
8424;DHT22;4249;49.072;9.770;2022-12-18T13:00:04;-1.70;99.90
8424;DHT22;4249;49.072;9.770;2022-12-18T13:02:54;-1.70;99.90
8424;DHT22;4249;49.072;9.770;2022-12-18T13:05:48;-1.80;99.90
8424;DHT22;4249;49.072;9.770;2022-12-18T13:08:55;-1.70;99.90
8424;DHT22;4249;49.072;9.770;2022-12-18T13:11:44;-1.70;99.90
8424;DHT22;4249;49.072;9.770;2022-12-18T13:14:51;-1.70;99.90
8424;DHT22;4249;49.072;9.770;2022-12-18T13:17:38;-1.70;99.90
8424;DHT22;4249;49.072;9.770;2022-12-18T13:20:33;-1.70;99.90
8424;DHT22;4249;49.072;9.770;2022-12-18T13:23:29;-1.70;99.90
8424;DHT22;4249;49.072;9.770;2022-12-18T13:26:37;-1.70;99.90
8424;DHT22;4249;49.072;9.770;2022-12-18T13:29:43;-1.60;99.90
8424;DHT22;4249;49.072;9.770;2022-12-18T13:32:31;-1.60;99.90
8424;DHT22;4249;49.072;9.770;2022-12-18T13:35:38;-1.60;99.90
8424;DHT22;4249;49.072;9.770;2022-12-18T13:38:33;-1.60;99.90
8424;DHT22;4249;49.072;9.770;2022-12-18T13:41:25;-1.60;99.90
8424;DHT22;4249;49.072;9.770;2022-12-18T13:44:24;-1.70;99.90
8424;DHT22;4249;49.072;9.770;2022-12-18T13:47:27;-1.80;99.90
8424;DHT22;4249;49.072;9.770;2022-12-18T13:50:22;-1.70;99.90
8424;DHT22;4249;49.072;9.770;2022-12-18T13:53:20;-1.90;99.90
8424;DHT22;4249;49.072;9.770;2022-12-18T13:56:08;-1.90;99.90
8424;DHT22;4249;49.072;9.770;2022-12-18T13:59:17;-2.00;99.90
8424;DHT22;4249;49.072;9.770;2022-12-18T14:02:14;-2.10;99.90
8424;DHT22;4249;49.072;9.770;2022-12-18T14:05:01;-2.10;99.90
8424;DHT22;4249;49.072;9.770;2022-12-18T14:07:49;-2.20;99.90
8424;DHT22;4249;49.072;9.770;2022-12-18T14:10:17;-2.20;99.90
8424;DHT22;4249;49.072;9.770;2022-12-18T14:12:46;-2.20;99.90
8424;DHT22;4249;49.072;9.770;2022-12-18T14:15:46;-2.30;99.90
8424;DHT22;4249;49.072;9.770;2022-12-18T14:18:41;-2.40;99.90
8424;DHT22;4249;49.072;9.770;2022-12-18T14:21:30;-2.40;99.90
8424;DHT22;4249;49.072;9.770;2022-12-18T14:24:21;-2.50;99.90
8424;DHT22;4249;49.072;9.770;2022-12-18T14:27:23;-2.60;1.00
8424;DHT22;4249;49.072;9.770;2022-12-18T14:30:27;-2.60;1.00
8424;DHT22;4249;49.072;9.770;2022-12-18T14:33:16;-2.70;1.00
8424;DHT22;4249;49.072;9.770;2022-12-18T14:36:13;-2.80;1.00
8424;DHT22;4249;49.072;9.770;2022-12-18T14:39:01;-2.90;1.00
8424;DHT22;4249;49.072;9.770;2022-12-18T14:41:49;-2.90;1.00
8424;DHT22;4249;49.072;9.770;2022-12-18T14:44:36;-3.00;1.00
8424;DHT22;4249;49.072;9.770;2022-12-18T14:47:24;-3.10;1.00
8424;DHT22;4249;49.072;9.770;2022-12-18T14:50:13;-3.10;1.00
8424;DHT22;4249;49.072;9.770;2022-12-18T14:53:02;-3.10;1.00
8424;DHT22;4249;49.072;9.770;2022-12-18T14:55:50;-3.20;1.00
8424;DHT22;4249;49.072;9.770;2022-12-18T14:58:37;-3.30;1.00
8424;DHT22;4249;49.072;9.770;2022-12-18T15:01:27;-3.40;1.00
8424;DHT22;4249;49.072;9.770;2022-12-18T15:04:25;-3.40;1.00
8424;DHT22;4249;49.072;9.770;2022-12-18T15:07:15;-3.50;1.00
8424;DHT22;4249;49.072;9.770;2022-12-18T15:10:11;-3.50;60.00
8424;DHT22;4249;49.072;9.770;2022-12-18T15:13:15;-3.70;99.90
8424;DHT22;4249;49.072;9.770;2022-12-18T15:16:11;-3.70;99.90
8424;DHT22;4249;49.072;9.770;2022-12-18T15:19:00;-3.80;1.00
8424;DHT22;4249;49.072;9.770;2022-12-18T15:21:48;-3.90;1.00
8424;DHT22;4249;49.072;9.770;2022-12-18T15:24:35;-3.90;1.00
8424;DHT22;4249;49.072;9.770;2022-12-18T15:27:27;-4.10;1.00
8424;DHT22;4249;49.072;9.770;2022-12-18T15:30:22;-4.10;1.00
8424;DHT22;4249;49.072;9.770;2022-12-18T15:33:22;-4.30;98.50
8424;DHT22;4249;49.072;9.770;2022-12-18T15:36:12;-4.40;99.90
8424;DHT22;4249;49.072;9.770;2022-12-18T15:39:00;-4.40;1.00
8424;DHT22;4249;49.072;9.770;2022-12-18T15:41:47;-4.40;1.00
8424;DHT22;4249;49.072;9.770;2022-12-18T15:44:53;-4.50;1.00
8424;DHT22;4249;49.072;9.770;2022-12-18T15:47:41;-4.40;1.00
8424;DHT22;4249;49.072;9.770;2022-12-18T15:50:28;-4.40;99.90
8424;DHT22;4249;49.072;9.770;2022-12-18T15:53:17;-4.30;99.90
8424;DHT22;4249;49.072;9.770;2022-12-18T15:56:07;-4.40;99.90
8424;DHT22;4249;49.072;9.770;2022-12-18T15:59:15;-4.40;1.00
8424;DHT22;4249;49.072;9.770;2022-12-18T16:02:14;-4.30;1.00
8424;DHT22;4249;49.072;9.770;2022-12-18T16:05:02;-4.30;1.00
8424;DHT22;4249;49.072;9.770;2022-12-18T16:07:50;-4.30;1.00
8424;DHT22;4249;49.072;9.770;2022-12-18T16:10:37;-4.30;1.00
8424;DHT22;4249;49.072;9.770;2022-12-18T16:13:24;-4.30;1.00
8424;DHT22;4249;49.072;9.770;2022-12-18T16:16:19;-4.40;99.90
8424;DHT22;4249;49.072;9.770;2022-12-18T16:19:07;-4.40;99.90
8424;DHT22;4249;49.072;9.770;2022-12-18T16:21:57;-4.50;1.00
8424;DHT22;4249;49.072;9.770;2022-12-18T16:24:44;-4.50;1.00
8424;DHT22;4249;49.072;9.770;2022-12-18T16:27:32;-4.50;1.00
8424;DHT22;4249;49.072;9.770;2022-12-18T16:30:25;-4.50;1.00
8424;DHT22;4249;49.072;9.770;2022-12-18T16:33:13;-4.60;1.00
8424;DHT22;4249;49.072;9.770;2022-12-18T16:36:02;-4.70;1.00
8424;DHT22;4249;49.072;9.770;2022-12-18T16:38:49;-4.80;99.90
8424;DHT22;4249;49.072;9.770;2022-12-18T16:41:37;-4.80;99.90
8424;DHT22;4249;49.072;9.770;2022-12-18T16:44:24;-4.80;99.90
8424;DHT22;4249;49.072;9.770;2022-12-18T16:47:11;-4.80;1.00
8424;DHT22;4249;49.072;9.770;2022-12-18T16:49:59;-4.80;1.00
8424;DHT22;4249;49.072;9.770;2022-12-18T16:52:48;-4.90;1.00
8424;DHT22;4249;49.072;9.770;2022-12-18T16:55:35;-4.90;1.00
8424;DHT22;4249;49.072;9.770;2022-12-18T16:58:22;-4.90;1.00
8424;DHT22;4249;49.072;9.770;2022-12-18T17:01:11;-4.90;1.00
8424;DHT22;4249;49.072;9.770;2022-12-18T17:04:00;-4.90;1.00
8424;DHT22;4249;49.072;9.770;2022-12-18T17:06:48;-4.80;1.00
8424;DHT22;4249;49.072;9.770;2022-12-18T17:09:38;-4.80;99.90
8424;DHT22;4249;49.072;9.770;2022-12-18T17:12:25;-4.80;99.90
8424;DHT22;4249;49.072;9.770;2022-12-18T17:15:13;-4.90;1.00
8424;DHT22;4249;49.072;9.770;2022-12-18T17:18:00;-4.80;99.90
8424;DHT22;4249;49.072;9.770;2022-12-18T17:20:48;-4.80;99.90
8424;DHT22;4249;49.072;9.770;2022-12-18T17:23:36;-4.80;1.00
8424;DHT22;4249;49.072;9.770;2022-12-18T17:26:25;-4.80;99.90
8424;DHT22;4249;49.072;9.770;2022-12-18T17:29:13;-4.80;99.90
8424;DHT22;4249;49.072;9.770;2022-12-18T17:32:01;-4.80;99.90
8424;DHT22;4249;49.072;9.770;2022-12-18T17:34:48;-4.80;99.90
8424;DHT22;4249;49.072;9.770;2022-12-18T17:37:36;-4.80;99.90
8424;DHT22;4249;49.072;9.770;2022-12-18T17:40:25;-4.70;99.90
8424;DHT22;4249;49.072;9.770;2022-12-18T17:43:13;-4.70;1.00
8424;DHT22;4249;49.072;9.770;2022-12-18T17:46:01;-4.70;1.00
8424;DHT22;4249;49.072;9.770;2022-12-18T17:48:49;-4.70;95.80
8424;DHT22;4249;49.072;9.770;2022-12-18T17:51:36;-4.80;99.90
8424;DHT22;4249;49.072;9.770;2022-12-18T17:54:23;-4.70;99.90
8424;DHT22;4249;49.072;9.770;2022-12-18T17:57:10;-4.70;1.00
8424;DHT22;4249;49.072;9.770;2022-12-18T17:59:59;-4.60;7.50
8424;DHT22;4249;49.072;9.770;2022-12-18T18:02:47;-4.50;1.00
8424;DHT22;4249;49.072;9.770;2022-12-18T18:05:34;-4.50;1.00
8424;DHT22;4249;49.072;9.770;2022-12-18T18:08:21;-4.40;99.90
8424;DHT22;4249;49.072;9.770;2022-12-18T18:11:12;-4.40;81.40
8424;DHT22;4249;49.072;9.770;2022-12-18T18:14:18;-4.40;99.90
8424;DHT22;4249;49.072;9.770;2022-12-18T18:17:07;-4.50;99.90
8424;DHT22;4249;49.072;9.770;2022-12-18T18:19:56;-4.60;99.90
8424;DHT22;4249;49.072;9.770;2022-12-18T18:22:44;-4.60;1.00
8424;DHT22;4249;49.072;9.770;2022-12-18T18:25:35;-4.60;1.00
8424;DHT22;4249;49.072;9.770;2022-12-18T18:28:22;-4.60;1.00
8424;DHT22;4249;49.072;9.770;2022-12-18T18:31:10;-4.70;1.00
8424;DHT22;4249;49.072;9.770;2022-12-18T18:33:59;-4.70;1.00
8424;DHT22;4249;49.072;9.770;2022-12-18T18:36:46;-4.70;1.00